Time;durP1;ratioP1;P1;durP2;ratioP2;P2;SDS_P1;SDS_P2;PMS_P1;PMS_P2;Temp;Humidity;BMP_temperature;BMP_pressure;BME280_temperature;BME280_humidity;BME280_pressure;Samples;Min_cycle;Max_cycle;Signal;HPM_P1;HPM_P2
2022/06/15 00:03:13;;;;;;;5.30;2.02;;;;;;;20.55;53.18;99612.80;4345906;80;28472;-82
2022/06/15 00:09:15;;;;;;;4.35;2.08;;;;;;;20.41;52.82;99622.20;4356179;80;28535;-80
2022/06/15 00:15:17;;;;;;;4.83;2.08;;;;;;;20.38;53.27;99623.31;4333516;80;28614;-79
2022/06/15 00:21:20;;;;;;;4.15;1.80;;;;;;;20.16;53.60;99619.07;4349060;80;28510;-79
2022/06/15 00:27:21;;;;;;;5.75;2.20;;;;;;;19.84;55.39;99628.46;4357065;80;28565;-80
2022/06/15 00:33:24;;;;;;;6.37;2.02;;;;;;;19.76;55.73;99632.02;4364900;80;28486;-80
2022/06/15 00:39:25;;;;;;;5.45;2.67;;;;;;;19.64;56.01;99628.80;4372777;80;28532;-79
2022/06/15 00:45:27;;;;;;;4.60;2.40;;;;;;;19.56;56.62;99627.99;4352758;80;28504;-79
2022/06/15 00:51:29;;;;;;;5.75;2.30;;;;;;;19.46;57.74;99629.65;4364935;80;28494;-79
2022/06/15 00:57:30;;;;;;;19.87;4.65;;;;;;;19.60;56.82;99624.97;4335125;80;28541;-81
2022/06/15 01:03:32;;;;;;;6.25;2.22;;;;;;;19.69;56.36;99623.31;4353616;80;28507;-81
2022/06/15 01:09:38;;;;;;;7.72;2.65;;;;;;;19.53;55.71;99625.83;4334168;80;28551;-81
2022/06/15 01:15:48;;;;;;;5.33;2.53;;;;;;;19.70;54.29;99624.94;4339324;80;28525;-80
2022/06/15 01:22:28;;;;;;;9.55;2.45;;;;;;;19.33;56.17;99631.59;4353396;80;28566;-79
2022/06/15 01:28:47;;;;;;;5.05;3.10;;;;;;;19.55;56.66;99634.55;4335004;80;28562;-80
2022/06/15 01:35:09;;;;;;;5.83;3.37;;;;;;;19.89;55.27;99633.89;4337973;80;28567;-79
2022/06/15 01:41:37;;;;;;;7.60;3.55;;;;;;;19.99;55.65;99628.95;4331104;80;28590;-81
2022/06/15 01:47:41;;;;;;;6.17;3.40;;;;;;;19.79;58.10;99636.11;4300779;81;28499;-81
2022/06/15 01:53:48;;;;;;;6.45;3.35;;;;;;;19.78;58.39;99624.38;4316594;80;28540;-81
2022/06/15 02:00:01;;;;;;;6.47;2.77;;;;;;;20.20;57.10;99627.78;4339588;80;28556;-80
2022/06/15 02:06:18;;;;;;;5.90;2.95;;;;;;;20.58;55.77;99622.36;4336057;80;28516;-80
2022/06/15 02:12:28;;;;;;;7.50;3.13;;;;;;;20.59;57.10;99622.62;4242414;82;28607;-81
2022/06/15 02:18:33;;;;;;;7.67;3.27;;;;;;;20.64;56.22;99614.94;4331969;80;28547;-81
2022/06/15 02:24:36;;;;;;;5.28;2.75;;;;;;;20.72;56.56;99615.17;4340762;80;28504;-81
2022/06/15 02:30:40;;;;;;;4.22;2.75;;;;;;;20.60;57.94;99622.34;4324624;80;28440;-81
2022/06/15 02:36:42;;;;;;;7.15;3.20;;;;;;;20.54;58.45;99619.94;4354948;80;28530;-82
2022/06/15 02:42:45;;;;;;;5.95;3.70;;;;;;;20.59;58.48;99630.28;4346425;80;28516;-81
2022/06/15 02:48:49;;;;;;;7.05;3.22;;;;;;;20.38;59.40;99625.48;4312973;80;28507;-80
2022/06/15 02:54:54;;;;;;;6.10;3.15;;;;;;;20.75;57.90;99626.05;4276084;80;28472;-80
2022/06/15 03:00:59;;;;;;;6.67;3.27;;;;;;;20.88;58.77;99625.99;4328223;80;28481;-81
2022/06/15 03:07:02;;;;;;;6.78;2.98;;;;;;;20.65;59.64;99620.66;4327383;80;28518;-82
2022/06/15 03:13:04;;;;;;;5.53;3.20;;;;;;;21.02;58.15;99622.86;4302477;81;28534;-81
2022/06/15 03:19:05;;;;;;;9.35;3.52;;;;;;;21.31;57.09;99621.25;4337230;80;28554;-81
2022/06/15 03:25:07;;;;;;;6.42;3.47;;;;;;;21.11;57.85;99620.87;4329791;81;28507;-81
2022/06/15 03:31:09;;;;;;;6.50;3.17;;;;;;;21.09;58.13;99627.19;4316869;80;28570;-81
2022/06/15 03:37:11;;;;;;;6.30;3.33;;;;;;;21.25;58.03;99624.59;4335605;80;28496;-81
2022/06/15 03:43:15;;;;;;;6.25;3.52;;;;;;;21.42;57.22;99622.77;4331083;81;28504;-79
2022/06/15 03:49:16;;;;;;;6.30;3.58;;;;;;;21.57;56.59;99630.54;4149422;84;28569;-78
2022/06/15 03:55:20;;;;;;;8.20;3.15;;;;;;;21.62;55.36;99631.04;4160088;84;29023;-79
2022/06/15 04:01:22;;;;;;;7.65;3.25;;;;;;;21.84;53.65;99629.19;4161052;84;28527;-80
2022/06/15 04:13:48;;;;;;;6.85;3.37;;;;;;;21.50;53.93;99640.47;4339274;80;28508;-81
2022/06/15 04:26:11;;;;;;;5.80;3.40;;;;;;;22.04;51.74;99642.36;4346376;80;28442;-81
2022/06/15 04:32:14;;;;;;;9.15;3.87;;;;;;;21.98;51.21;99635.56;4331469;80;28541;-78
2022/06/15 04:38:16;;;;;;;7.55;3.70;;;;;;;21.80;52.65;99630.86;4336580;80;28586;-80
2022/06/15 04:44:19;;;;;;;9.88;3.30;;;;;;;21.41;54.92;99624.42;4373952;80;28502;-80
2022/06/15 04:50:22;;;;;;;7.80;3.70;;;;;;;21.83;54.43;99631.09;4390871;80;28697;-81
2022/06/15 04:56:26;;;;;;;9.33;4.25;;;;;;;21.96;52.99;99630.95;4345844;80;28609;-81
2022/06/15 05:02:28;;;;;;;8.40;4.28;;;;;;;22.31;52.40;99623.09;4207002;83;28482;-80
2022/06/15 05:08:29;;;;;;;8.00;4.53;;;;;;;22.75;50.72;99627.39;4211874;83;28575;-81
2022/06/15 05:14:31;;;;;;;8.43;4.53;;;;;;;22.83;51.07;99617.12;4199616;83;28509;-86
2022/06/15 05:20:40;;;;;;;8.28;4.62;;;;;;;23.01;50.39;99623.42;4187926;83;28934;-83
2022/06/15 05:26:44;;;;;;;7.80;4.17;;;;;;;22.91;49.51;99630.73;4294573;81;28620;-82
2022/06/15 05:32:46;;;;;;;9.35;4.20;;;;;;;22.97;46.57;99631.45;4331850;80;28534;-79
2022/06/15 05:38:50;;;;;;;7.05;3.77;;;;;;;23.21;46.06;99633.23;4338755;80;28547;-80
2022/06/15 05:44:56;;;;;;;9.75;3.90;;;;;;;23.44;45.69;99636.14;4352690;80;28625;-79
2022/06/15 05:50:58;;;;;;;6.53;2.77;;;;;;;23.32;46.22;99631.97;4360148;80;28580;-79
2022/06/15 05:57:04;;;;;;;7.62;3.00;;;;;;;23.33;43.62;99632.80;4376308;80;28515;-80
2022/06/15 06:03:05;;;;;;;9.08;3.27;;;;;;;23.51;42.56;99633.83;4368215;80;28494;-81
2022/06/15 06:09:07;;;;;;;7.60;3.20;;;;;;;23.75;41.62;99643.79;4360993;80;28549;-81
2022/06/15 06:15:09;;;;;;;5.47;2.95;;;;;;;23.85;42.63;99640.05;4362780;79;28491;-80
2022/06/15 06:21:10;;;;;;;11.68;3.35;;;;;;;23.90;41.58;99631.69;4392817;80;28515;-79
2022/06/15 06:27:15;;;;;;;8.73;2.98;;;;;;;24.11;41.57;99643.10;4382264;80;28517;-78
2022/06/15 06:33:17;;;;;;;5.65;2.42;;;;;;;24.12;40.68;99648.02;4336528;80;28533;-80
2022/06/15 06:39:31;;;;;;;7.25;2.40;;;;;;;24.11;39.70;99647.22;4369326;80;28606;-78
2022/06/15 06:45:30;;;;;;;6.47;2.33;;;;;;;24.12;39.50;99654.34;4332510;81;28493;-79
2022/06/15 06:51:37;;;;;;;4.70;2.10;;;;;;;23.87;39.33;99659.77;4363085;80;28520;-79
2022/06/15 06:57:38;;;;;;;5.42;2.05;;;;;;;24.50;38.09;99656.78;4334115;81;28461;-79
2022/06/15 07:03:40;;;;;;;7.20;2.10;;;;;;;24.02;37.51;99655.31;4324909;81;28522;-79
2022/06/15 07:09:41;;;;;;;3.33;1.80;;;;;;;24.45;37.36;99660.21;4329076;81;28578;-80
2022/06/15 07:15:42;;;;;;;4.60;1.90;;;;;;;23.95;36.92;99658.48;4328163;81;28547;-80
2022/06/15 07:21:44;;;;;;;5.50;1.75;;;;;;;24.36;35.61;99662.31;4346587;81;28501;-81
2022/06/15 07:27:45;;;;;;;4.17;1.77;;;;;;;24.50;36.28;99656.78;4350880;80;28514;-82
2022/06/15 07:33:47;;;;;;;5.22;1.67;;;;;;;24.88;36.53;99655.66;4332522;80;28507;-81
2022/06/15 07:39:48;;;;;;;4.17;1.80;;;;;;;24.55;36.18;99650.94;4331137;80;28503;-82
2022/06/15 07:45:50;;;;;;;6.28;1.85;;;;;;;24.44;35.91;99648.97;4323644;80;28515;-78
2022/06/15 07:51:57;;;;;;;6.28;1.98;;;;;;;24.57;36.52;99644.56;4338929;80;28529;-79
2022/06/15 07:57:58;;;;;;;;;;;;;;;24.54;35.85;99647.94;4372477;80;28579;-79
2022/06/15 08:03:59;;;;;;;6.72;1.52;;;;;;;24.90;35.90;99649.30;4385574;80;20247;-80
2022/06/15 08:10:03;;;;;;;3.83;1.90;;;;;;;24.95;35.57;99640.67;4348042;80;28556;-80
2022/06/15 08:16:06;;;;;;;4.70;1.85;;;;;;;24.46;36.13;99639.30;4335829;80;28565;-81
2022/06/15 08:22:09;;;;;;;7.22;1.95;;;;;;;24.68;35.60;99641.82;4338058;80;28567;-77
2022/06/15 08:28:13;;;;;;;4.60;1.70;;;;;;;25.13;35.11;99645.71;4338880;80;28531;-76
2022/06/15 08:34:14;;;;;;;5.87;1.60;;;;;;;25.37;36.71;99636.31;4337094;80;28539;-79
2022/06/15 08:40:16;;;;;;;6.83;1.40;;;;;;;25.60;35.43;99628.81;4333840;80;28594;-79
2022/06/15 08:46:41;;;;;;;4.97;1.50;;;;;;;25.41;33.84;99645.00;4307339;80;28508;-78
2022/06/15 08:52:56;;;;;;;3.45;1.40;;;;;;;25.98;34.11;99636.55;4328740;80;28532;-78
2022/06/15 08:59:12;;;;;;;5.40;1.70;;;;;;;25.84;32.83;99642.77;4332834;81;28509;-80
2022/06/15 09:05:34;;;;;;;5.17;1.75;;;;;;;25.89;32.13;99635.16;4318518;80;28520;-78
2022/06/15 09:18:38;;;;;;;3.65;1.50;;;;;;;25.96;32.70;99628.36;4330535;80;28516;-79
2022/06/15 09:25:01;;;;;;;3.90;1.70;;;;;;;25.84;32.54;99636.67;4323922;81;28536;-80
2022/06/15 09:31:13;;;;;;;2.95;1.45;;;;;;;25.69;31.78;99629.66;4331727;80;28550;-80
2022/06/15 09:37:20;;;;;;;5.30;1.72;;;;;;;26.46;31.61;99625.80;4345762;80;28536;-80
2022/06/15 09:43:55;;;;;;;3.25;1.40;;;;;;;26.80;32.75;99624.15;4328265;80;28509;-81
2022/06/15 09:50:20;;;;;;;6.40;1.70;;;;;;;27.31;32.41;99613.92;4320583;80;28516;-80
2022/06/15 09:56:23;;;;;;;6.60;1.98;;;;;;;27.54;31.15;99615.89;4343599;80;28546;-80
2022/06/15 10:02:36;;;;;;;5.22;1.70;;;;;;;27.59;30.90;99612.11;4330476;80;28508;-80
2022/06/15 10:08:37;;;;;;;3.85;1.90;;;;;;;27.54;31.40;99608.17;4351372;80;28485;-81
2022/06/15 10:14:38;;;;;;;5.00;2.00;;;;;;;27.48;31.43;99619.12;4350828;80;28453;-80
2022/06/15 10:20:43;;;;;;;5.12;1.90;;;;;;;28.34;30.41;99615.44;4338789;80;28526;-81
2022/06/15 10:26:49;;;;;;;4.75;2.33;;;;;;;28.39;29.75;99613.28;4354370;80;28565;-81
2022/06/15 10:33:02;;;;;;;4.30;1.90;;;;;;;28.91;30.24;99600.14;4337636;80;28516;-82
2022/06/15 10:39:08;;;;;;;4.97;2.02;;;;;;;29.00;29.46;99595.07;4348955;80;28466;-83
2022/06/15 10:45:37;;;;;;;6.03;2.10;;;;;;;29.01;29.15;99597.50;4345311;80;28611;-82
2022/06/15 10:51:39;;;;;;;6.55;2.10;;;;;;;29.14;29.25;99565.13;4318563;81;28576;-80
2022/06/15 11:04:19;;;;;;;3.30;1.90;;;;;;;29.26;28.64;99577.37;4319604;80;28519;-80
2022/06/15 11:10:32;;;;;;;3.55;1.92;;;;;;;28.87;28.45;99570.14;4330470;81;28504;-84
2022/06/15 11:23:25;;;;;;;4.35;2.20;;;;;;;28.85;29.37;99569.68;4330150;80;28544;-79
2022/06/15 11:29:52;;;;;;;4.47;2.00;;;;;;;28.80;28.66;99578.18;4340877;80;28558;-79
2022/06/15 11:36:25;;;;;;;5.62;1.90;;;;;;;29.27;28.50;99569.29;4336768;80;28518;-79
2022/06/15 11:42:24;;;;;;;5.35;2.00;;;;;;;29.89;28.93;99563.74;4334089;81;28514;-81
2022/06/15 11:49:01;;;;;;;3.25;1.82;;;;;;;29.97;28.14;99564.20;4319810;80;28492;-79
2022/06/15 11:55:14;;;;;;;8.20;2.10;;;;;;;30.39;29.44;99549.77;4266209;82;28479;-81
2022/06/15 12:01:51;;;;;;;3.92;1.87;;;;;;;30.32;28.16;99547.61;4352496;81;28485;-82
2022/06/15 12:07:59;;;;;;;4.53;1.90;;;;;;;30.58;28.49;99543.55;4311243;81;28550;-80
2022/06/15 12:14:06;;;;;;;3.12;1.72;;;;;;;30.58;27.19;99545.75;4332638;80;28545;-82
2022/06/15 12:20:59;;;;;;;4.75;1.80;;;;;;;30.20;27.51;99542.91;4335021;80;28562;-82
2022/06/15 12:27:09;;;;;;;4.30;1.80;;;;;;;30.44;27.72;99542.57;4325697;80;28523;-80
2022/06/15 12:33:35;;;;;;;3.95;1.75;;;;;;;29.78;27.88;99538.47;4329262;80;28526;-80
2022/06/15 12:40:18;;;;;;;5.47;1.90;;;;;;;29.28;27.58;99544.03;4335254;80;28540;-81
2022/06/15 12:46:23;;;;;;;4.65;1.85;;;;;;;29.87;27.48;99518.95;4339912;81;28968;-80
2022/06/15 12:52:37;;;;;;;3.20;1.82;;;;;;;30.32;28.51;99518.48;4340536;80;28540;-83
2022/06/15 12:59:05;;;;;;;3.85;1.52;;;;;;;30.18;27.41;99515.52;4322349;81;28482;-82
2022/06/15 13:05:28;;;;;;;3.33;1.87;;;;;;;29.82;27.81;99510.88;4323096;81;28528;-79
2022/06/15 13:11:33;;;;;;;3.92;1.65;;;;;;;29.30;27.12;99507.11;4331694;80;28552;-78
2022/06/15 13:18:12;;;;;;;4.67;1.98;;;;;;;29.97;26.40;99503.78;4332347;81;28514;-79
2022/06/15 13:24:13;;;;;;;4.67;1.95;;;;;;;29.98;27.49;99495.12;4337327;80;28522;-78
2022/06/15 13:30:30;;;;;;;4.62;2.92;;;;;;;31.94;24.92;99503.41;4347337;81;28512;-77
2022/06/15 13:36:32;;;;;;;2.67;1.67;;;;;;;31.75;24.65;99503.58;4336349;80;28520;-80
2022/06/15 13:42:41;;;;;;;5.05;1.95;;;;;;;30.08;26.31;99498.59;4339390;80;28493;-79
2022/06/15 13:48:46;;;;;;;2.15;1.50;;;;;;;30.19;26.58;99503.27;4315943;80;28555;-79
2022/06/15 13:55:08;;;;;;;4.10;1.70;;;;;;;30.22;26.34;99491.27;4353980;81;28575;-82
2022/06/15 14:01:41;;;;;;;4.78;2.02;;;;;;;30.02;26.56;99488.31;4331996;80;28545;-82
2022/06/15 14:08:20;;;;;;;4.03;1.80;;;;;;;30.12;26.46;99496.16;4329982;80;28579;-83
2022/06/15 14:14:31;;;;;;;;;;;;;;;29.20;26.71;99494.52;4354245;81;28523;-83
2022/06/15 14:20:40;;;;;;;5.55;2.30;;;;;;;29.47;26.87;99485.31;4333156;80;20581;-81
2022/06/15 14:26:48;;;;;;;3.33;1.77;;;;;;;29.68;27.42;99476.61;4329748;80;28528;-83
2022/06/15 14:33:07;;;;;;;3.10;1.90;;;;;;;30.07;26.67;99468.67;4321174;81;28531;-81
2022/06/15 14:39:17;;;;;;;3.25;1.90;;;;;;;30.10;26.46;99470.76;4311913;81;28573;-82
2022/06/15 14:45:23;;;;;;;4.87;2.05;;;;;;;29.96;26.67;99462.81;4331242;80;28543;-80
2022/06/15 14:51:29;;;;;;;5.20;2.03;;;;;;;29.11;27.41;99465.36;4290211;80;28550;-81
2022/06/15 14:57:37;;;;;;;2.98;1.65;;;;;;;30.60;26.46;99439.39;4346111;80;28507;-79
2022/06/15 15:03:41;;;;;;;4.10;1.75;;;;;;;29.95;26.93;99451.50;4342838;80;28561;-79
2022/06/15 15:09:44;;;;;;;4.15;2.08;;;;;;;29.85;27.34;99443.69;4327392;80;28473;-80
2022/06/15 15:16:02;;;;;;;3.67;2.00;;;;;;;29.61;26.93;99435.66;4348606;80;28555;-82
2022/06/15 15:22:10;;;;;;;3.98;2.42;;;;;;;29.84;27.27;99433.16;4343302;80;28517;-80
2022/06/15 15:34:38;;;;;;;4.42;1.77;;;;;;;29.66;27.54;99421.58;4362458;80;28556;-82
2022/06/15 15:40:40;;;;;;;2.77;1.77;;;;;;;29.13;27.92;99427.88;4344231;80;28594;-83
2022/06/15 15:46:43;;;;;;;3.42;1.95;;;;;;;29.80;27.48;99424.52;4341995;81;28541;-78
2022/06/15 15:52:47;;;;;;;4.12;2.10;;;;;;;29.99;27.20;99420.52;4351547;81;28515;-77
2022/06/15 15:58:50;;;;;;;5.35;1.98;;;;;;;30.17;27.56;99419.64;4362760;80;28595;-78
2022/06/15 16:04:53;;;;;;;3.45;1.98;;;;;;;30.27;26.85;99416.95;4341047;81;28523;-78
2022/06/15 16:10:55;;;;;;;3.80;1.92;;;;;;;30.46;27.01;99410.70;4339338;80;29037;-79
2022/06/15 16:16:56;;;;;;;2.75;2.20;;;;;;;30.76;26.86;99414.22;4341286;81;28582;-79
2022/06/15 16:22:59;;;;;;;3.80;2.25;;;;;;;30.92;27.28;99412.22;4365389;81;28505;-79
2022/06/15 16:29:01;;;;;;;9.68;2.95;;;;;;;30.88;26.63;99408.56;4346187;80;28539;-79
2022/06/15 16:35:04;;;;;;;5.12;1.80;;;;;;;31.26;27.01;99399.34;4345127;81;28532;-81
2022/06/15 16:41:10;;;;;;;4.63;1.90;;;;;;;31.87;26.10;99391.49;4368052;80;28560;-79
2022/06/15 16:47:11;;;;;;;4.35;1.80;;;;;;;31.76;26.30;99389.88;4314837;81;28526;-79
2022/06/15 16:53:13;;;;;;;4.90;2.10;;;;;;;31.35;26.43;99391.61;4388241;80;28571;-82
2022/06/15 16:59:19;;;;;;;4.30;1.87;;;;;;;31.56;26.43;99384.89;4341716;80;28539;-82
2022/06/15 17:05:20;;;;;;;4.35;1.80;;;;;;;32.07;25.66;99388.69;4351857;80;28492;-81
2022/06/15 17:11:22;;;;;;;3.08;1.40;;;;;;;33.72;23.99;99379.08;4362168;80;28530;-80
2022/06/15 17:17:26;;;;;;;7.90;1.90;;;;;;;32.85;24.46;99386.82;4353217;80;28580;-79
2022/06/15 17:23:31;;;;;;;5.17;2.00;;;;;;;32.69;24.65;99382.22;4325912;80;28535;-79
2022/06/15 17:29:33;;;;;;;3.70;1.87;;;;;;;32.76;24.65;99378.74;4288326;80;28536;-80
2022/06/15 17:35:36;;;;;;;6.00;1.90;;;;;;;32.95;26.41;99369.50;4332223;80;28574;-79
2022/06/15 17:41:45;;;;;;;4.42;2.00;;;;;;;32.98;26.76;99376.31;4306127;80;28534;-77
2022/06/15 17:47:46;;;;;;;3.40;2.10;;;;;;;32.89;27.08;99375.95;4376478;80;28561;-78
2022/06/15 17:53:50;;;;;;;4.72;2.05;;;;;;;32.80;28.02;99374.84;4338462;80;28516;-77
2022/06/15 17:59:51;;;;;;;3.65;1.85;;;;;;;32.54;28.55;99386.17;4369319;80;28555;-76
2022/06/15 18:05:53;;;;;;;7.45;2.45;;;;;;;32.40;28.10;99382.56;4268689;82;28507;-77
2022/06/15 18:11:55;;;;;;;6.50;2.00;;;;;;;32.06;29.96;99387.08;4268145;82;28526;-83
2022/06/15 18:17:56;;;;;;;6.97;2.10;;;;;;;31.49;31.71;99384.73;4267877;82;28494;-78
2022/06/15 18:23:59;;;;;;;4.50;2.00;;;;;;;30.70;32.47;99390.11;4276371;83;28528;-79
2022/06/15 18:30:06;;;;;;;5.55;3.12;;;;;;;30.32;32.85;99386.17;4357695;80;28515;-78
2022/06/15 18:36:11;;;;;;;6.17;3.02;;;;;;;29.96;30.99;99393.52;4347636;80;28547;-78
2022/06/15 18:42:13;;;;;;;6.90;2.97;;;;;;;29.44;30.79;99389.09;4347679;81;28579;-75
2022/06/15 18:48:15;;;;;;;7.60;3.20;;;;;;;29.31;31.88;99393.82;4186801;83;28513;-76
2022/06/15 18:54:16;;;;;;;6.42;3.10;;;;;;;28.74;31.90;99395.57;4337229;80;28579;-75
2022/06/15 19:00:24;;;;;;;6.33;3.40;;;;;;;28.36;32.51;99405.79;4362991;80;28599;-77
2022/06/15 19:06:27;;;;;;;7.67;4.15;;;;;;;28.04;33.05;99410.38;4352755;80;28519;-81
2022/06/15 19:12:30;;;;;;;6.45;3.50;;;;;;;27.56;33.91;99423.64;4348567;80;28495;-80
2022/06/15 19:18:34;;;;;;;6.95;3.72;;;;;;;27.46;34.19;99432.28;4331125;80;28771;-80
2022/06/15 19:24:44;;;;;;;5.45;2.95;;;;;;;27.19;34.97;99433.84;4335633;80;28516;-79
2022/06/15 19:30:44;;;;;;;8.38;3.20;;;;;;;26.84;36.55;99436.75;4349924;80;28452;-81
2022/06/15 19:36:45;;;;;;;5.92;2.80;;;;;;;26.61;37.05;99439.77;4341017;80;28547;-79
2022/06/15 19:42:47;;;;;;;6.45;3.00;;;;;;;26.56;36.01;99442.13;4358446;80;28536;-81
2022/06/15 19:48:52;;;;;;;6.75;3.02;;;;;;;26.53;36.78;99442.77;4348188;80;28536;-86
2022/06/15 19:54:53;;;;;;;7.55;3.08;;;;;;;26.55;36.46;99443.83;4344914;80;28465;-83
2022/06/15 20:00:58;;;;;;;40.15;23.20;;;;;;;26.13;38.15;99445.18;4324212;80;28522;-78
2022/06/15 20:07:06;;;;;;;9.70;5.03;;;;;;;26.03;38.14;99446.34;4336337;80;28546;-81
2022/06/15 20:13:08;;;;;;;9.83;4.30;;;;;;;25.93;38.46;99443.09;4344669;81;28539;-83
2022/06/15 20:19:17;;;;;;;8.28;3.83;;;;;;;25.59;38.84;99444.95;4344383;80;28544;-85
2022/06/15 20:25:18;;;;;;;7.62;3.45;;;;;;;25.68;38.14;99446.91;4323221;80;28560;-86
2022/06/15 20:31:24;;;;;;;7.78;3.42;;;;;;;25.51;39.58;99445.74;4343788;81;28550;-85
2022/06/15 20:37:26;;;;;;;8.38;3.75;;;;;;;25.27;39.21;99455.23;4339192;80;28528;-89
2022/06/15 20:43:29;;;;;;;8.08;4.25;;;;;;;25.85;38.19;99455.73;4334641;80;28975;-87
2022/06/15 20:49:35;;;;;;;11.08;4.78;;;;;;;25.16;39.63;99451.95;4276942;81;28493;-87
2022/06/15 21:02:01;;;;;;;7.10;3.60;;;;;;;24.89;41.37;99452.44;4320601;80;28527;-85
2022/06/15 21:08:02;;;;;;;9.10;4.05;;;;;;;25.10;41.02;99452.42;4326617;81;28479;-87
2022/06/15 21:20:23;;;;;;;7.92;4.42;;;;;;;24.65;42.15;99455.53;4308760;80;28545;-87
2022/06/15 21:26:28;;;;;;;6.85;4.10;;;;;;;24.60;42.12;99453.73;4352663;80;28546;-86
2022/06/15 21:32:31;;;;;;;8.93;4.47;;;;;;;24.72;42.26;99455.87;4330761;80;28539;-84
2022/06/15 21:38:33;;;;;;;11.28;4.37;;;;;;;24.67;41.79;99450.52;4364581;81;28574;-84
2022/06/15 21:44:35;;;;;;;6.60;4.22;;;;;;;24.36;43.90;99456.23;4348527;80;28522;-84
2022/06/15 21:50:39;;;;;;;7.92;3.67;;;;;;;24.18;43.93;99453.94;4351479;80;28488;-87
2022/06/15 21:56:40;;;;;;;7.65;4.03;;;;;;;24.43;44.10;99438.50;4335232;80;28537;-88
2022/06/15 22:02:46;;;;;;;9.63;3.90;;;;;;;24.04;44.34;99434.77;4353584;80;28506;-86
2022/06/15 22:08:48;;;;;;;7.70;4.40;;;;;;;24.04;44.62;99437.52;4341364;80;28456;-85
2022/06/15 22:14:49;;;;;;;10.58;5.05;;;;;;;23.71;45.56;99428.69;4352425;80;28550;-85
2022/06/15 22:20:51;;;;;;;9.93;5.22;;;;;;;23.93;43.96;99434.20;4350626;80;28473;-86
2022/06/15 22:26:52;;;;;;;12.00;5.60;;;;;;;23.81;44.97;99425.70;4357387;80;28501;-88
2022/06/15 22:32:54;;;;;;;14.38;6.20;;;;;;;23.87;44.66;99424.45;4350429;80;28461;-85
2022/06/15 22:38:56;;;;;;;9.10;4.92;;;;;;;24.07;44.67;99420.98;4356807;80;28518;-87
2022/06/15 22:44:57;;;;;;;9.58;5.92;;;;;;;24.01;45.19;99416.73;4355880;80;28539;-87
2022/06/15 22:50:58;;;;;;;12.63;6.85;;;;;;;23.96;45.99;99414.92;4355606;81;28518;-87
2022/06/15 22:57:00;;;;;;;13.53;7.08;;;;;;;23.92;46.33;99416.11;4352687;81;28531;-88
2022/06/15 23:03:04;;;;;;;15.08;6.62;;;;;;;23.96;46.11;99419.04;4239237;82;28474;-85
2022/06/15 23:09:07;;;;;;;14.95;7.30;;;;;;;23.86;46.72;99414.59;4347846;80;28576;-88
2022/06/15 23:15:10;;;;;;;12.90;6.50;;;;;;;23.84;47.48;99414.09;4344851;80;28604;-89
2022/06/15 23:21:24;;;;;;;11.20;6.78;;;;;;;23.98;46.80;99415.96;4336221;80;28912;-88
2022/06/15 23:27:26;;;;;;;14.38;6.75;;;;;;;23.73;47.43;99414.88;4346251;80;28516;-87
2022/06/15 23:33:27;;;;;;;15.43;7.20;;;;;;;23.99;46.56;99419.78;4365342;80;28543;-86
2022/06/15 23:39:29;;;;;;;13.03;7.03;;;;;;;23.99;46.94;99418.95;4352493;80;28512;-85
2022/06/15 23:51:53;;;;;;;13.00;6.85;;;;;;;24.17;46.23;99409.75;4334413;80;28480;-81
2022/06/15 23:57:54;;;;;;;10.80;6.35;;;;;;;23.82;48.02;99405.36;4347100;80;28530;-80
